sensor_id;sensor_type;location;lat;lon;timestamp;P1;durP1;ratioP1;P2;durP2;ratioP2
20814;SDS011;10568;48.176;16.316;2023-05-10T00:00:07;2.60;;;2.00;;
20814;SDS011;10568;48.176;16.316;2023-05-10T00:02:34;2.30;;;1.90;;
20814;SDS011;10568;48.176;16.316;2023-05-10T00:05:00;2.80;;;1.83;;
20814;SDS011;10568;48.176;16.316;2023-05-10T00:07:26;2.57;;;1.90;;
20814;SDS011;10568;48.176;16.316;2023-05-10T00:09:52;2.30;;;1.70;;
20814;SDS011;10568;48.176;16.316;2023-05-10T00:12:18;2.83;;;2.07;;
20814;SDS011;10568;48.176;16.316;2023-05-10T00:14:43;2.40;;;1.70;;
20814;SDS011;10568;48.176;16.316;2023-05-10T00:17:10;3.20;;;2.00;;
20814;SDS011;10568;48.176;16.316;2023-05-10T00:19:35;2.67;;;1.87;;
20814;SDS011;10568;48.176;16.316;2023-05-10T00:22:01;1.83;;;1.47;;
20814;SDS011;10568;48.176;16.316;2023-05-10T00:24:28;3.33;;;2.03;;
20814;SDS011;10568;48.176;16.316;2023-05-10T00:26:53;2.30;;;1.70;;
20814;SDS011;10568;48.176;16.316;2023-05-10T00:29:19;2.57;;;2.00;;
20814;SDS011;10568;48.176;16.316;2023-05-10T00:31:45;2.57;;;1.97;;
20814;SDS011;10568;48.176;16.316;2023-05-10T00:34:10;2.23;;;1.80;;
20814;SDS011;10568;48.176;16.316;2023-05-10T00:36:36;3.07;;;1.70;;
20814;SDS011;10568;48.176;16.316;2023-05-10T00:39:02;3.37;;;1.80;;
20814;SDS011;10568;48.176;16.316;2023-05-10T00:41:28;3.63;;;2.03;;
20814;SDS011;10568;48.176;16.316;2023-05-10T00:43:57;2.30;;;1.80;;
20814;SDS011;10568;48.176;16.316;2023-05-10T00:46:23;2.43;;;1.80;;
20814;SDS011;10568;48.176;16.316;2023-05-10T00:48:49;2.83;;;1.90;;
20814;SDS011;10568;48.176;16.316;2023-05-10T00:51:15;2.60;;;1.70;;
20814;SDS011;10568;48.176;16.316;2023-05-10T00:53:41;3.00;;;1.93;;
20814;SDS011;10568;48.176;16.316;2023-05-10T00:56:14;2.57;;;1.77;;
20814;SDS011;10568;48.176;16.316;2023-05-10T00:58:41;2.97;;;2.17;;
20814;SDS011;10568;48.176;16.316;2023-05-10T01:01:07;3.03;;;1.73;;
20814;SDS011;10568;48.176;16.316;2023-05-10T01:03:34;4.73;;;1.87;;
20814;SDS011;10568;48.176;16.316;2023-05-10T01:06:01;3.13;;;2.13;;
20814;SDS011;10568;48.176;16.316;2023-05-10T01:08:26;4.10;;;1.67;;
20814;SDS011;10568;48.176;16.316;2023-05-10T01:10:53;2.80;;;1.87;;
20814;SDS011;10568;48.176;16.316;2023-05-10T01:13:27;2.70;;;2.07;;
20814;SDS011;10568;48.176;16.316;2023-05-10T01:16:15;2.87;;;2.07;;
20814;SDS011;10568;48.176;16.316;2023-05-10T01:18:41;5.73;;;2.10;;
20814;SDS011;10568;48.176;16.316;2023-05-10T01:21:29;2.67;;;1.80;;
20814;SDS011;10568;48.176;16.316;2023-05-10T01:35:20;1.93;;;1.70;;
20814;SDS011;10568;48.176;16.316;2023-05-10T01:40:33;2.47;;;1.87;;
20814;SDS011;10568;48.176;16.316;2023-05-10T01:43:08;2.17;;;1.60;;
20814;SDS011;10568;48.176;16.316;2023-05-10T01:48:16;2.97;;;1.97;;
20814;SDS011;10568;48.176;16.316;2023-05-10T01:50:44;2.13;;;1.60;;
20814;SDS011;10568;48.176;16.316;2023-05-10T01:53:12;2.17;;;1.77;;
20814;SDS011;10568;48.176;16.316;2023-05-10T01:55:44;3.07;;;1.70;;
20814;SDS011;10568;48.176;16.316;2023-05-10T01:58:14;2.90;;;1.80;;
20814;SDS011;10568;48.176;16.316;2023-05-10T02:00:46;2.83;;;2.10;;
20814;SDS011;10568;48.176;16.316;2023-05-10T02:03:14;3.37;;;1.83;;
20814;SDS011;10568;48.176;16.316;2023-05-10T02:05:43;2.07;;;1.70;;
20814;SDS011;10568;48.176;16.316;2023-05-10T02:08:11;6.83;;;2.20;;
20814;SDS011;10568;48.176;16.316;2023-05-10T02:10:39;3.30;;;1.57;;
20814;SDS011;10568;48.176;16.316;2023-05-10T02:13:06;3.43;;;2.40;;
20814;SDS011;10568;48.176;16.316;2023-05-10T02:15:33;3.27;;;1.97;;
20814;SDS011;10568;48.176;16.316;2023-05-10T02:18:02;2.43;;;1.87;;
20814;SDS011;10568;48.176;16.316;2023-05-10T02:20:29;2.00;;;1.80;;
20814;SDS011;10568;48.176;16.316;2023-05-10T02:22:57;4.27;;;2.17;;
20814;SDS011;10568;48.176;16.316;2023-05-10T02:25:24;3.57;;;2.47;;
20814;SDS011;10568;48.176;16.316;2023-05-10T02:27:53;3.40;;;2.00;;
20814;SDS011;10568;48.176;16.316;2023-05-10T02:30:22;3.73;;;2.20;;
20814;SDS011;10568;48.176;16.316;2023-05-10T02:32:49;3.83;;;2.23;;
20814;SDS011;10568;48.176;16.316;2023-05-10T02:35:16;3.77;;;2.37;;
20814;SDS011;10568;48.176;16.316;2023-05-10T02:37:43;2.17;;;2.00;;
20814;SDS011;10568;48.176;16.316;2023-05-10T02:40:10;3.37;;;2.20;;
20814;SDS011;10568;48.176;16.316;2023-05-10T02:42:37;2.40;;;2.03;;
20814;SDS011;10568;48.176;16.316;2023-05-10T02:45:11;4.03;;;2.20;;
20814;SDS011;10568;48.176;16.316;2023-05-10T02:47:39;3.30;;;2.37;;
20814;SDS011;10568;48.176;16.316;2023-05-10T02:50:05;5.17;;;1.90;;
20814;SDS011;10568;48.176;16.316;2023-05-10T02:52:46;3.00;;;2.10;;
20814;SDS011;10568;48.176;16.316;2023-05-10T02:55:15;3.47;;;2.50;;
20814;SDS011;10568;48.176;16.316;2023-05-10T02:58:05;4.20;;;2.20;;
20814;SDS011;10568;48.176;16.316;2023-05-10T03:00:30;2.63;;;1.83;;
20814;SDS011;10568;48.176;16.316;2023-05-10T03:02:56;1.97;;;1.77;;
20814;SDS011;10568;48.176;16.316;2023-05-10T03:05:22;2.83;;;2.07;;
20814;SDS011;10568;48.176;16.316;2023-05-10T03:07:48;2.77;;;2.03;;
20814;SDS011;10568;48.176;16.316;2023-05-10T03:10:15;3.80;;;2.47;;
20814;SDS011;10568;48.176;16.316;2023-05-10T03:12:46;2.47;;;2.00;;
20814;SDS011;10568;48.176;16.316;2023-05-10T03:18:01;6.20;;;1.97;;
20814;SDS011;10568;48.176;16.316;2023-05-10T03:20:35;3.87;;;2.03;;
20814;SDS011;10568;48.176;16.316;2023-05-10T03:23:11;3.80;;;2.30;;
20814;SDS011;10568;48.176;16.316;2023-05-10T03:25:46;4.13;;;2.37;;
20814;SDS011;10568;48.176;16.316;2023-05-10T03:28:14;2.57;;;1.87;;
20814;SDS011;10568;48.176;16.316;2023-05-10T03:30:41;3.60;;;2.43;;
20814;SDS011;10568;48.176;16.316;2023-05-10T03:33:08;3.93;;;2.37;;
20814;SDS011;10568;48.176;16.316;2023-05-10T03:35:34;3.27;;;2.20;;
20814;SDS011;10568;48.176;16.316;2023-05-10T03:38:00;3.37;;;1.80;;
20814;SDS011;10568;48.176;16.316;2023-05-10T03:40:26;3.30;;;2.10;;
20814;SDS011;10568;48.176;16.316;2023-05-10T03:42:57;2.57;;;2.17;;
20814;SDS011;10568;48.176;16.316;2023-05-10T03:45:23;2.57;;;2.07;;
20814;SDS011;10568;48.176;16.316;2023-05-10T03:47:49;3.30;;;1.90;;
20814;SDS011;10568;48.176;16.316;2023-05-10T03:50:15;6.13;;;2.53;;
20814;SDS011;10568;48.176;16.316;2023-05-10T03:52:41;2.80;;;2.10;;
20814;SDS011;10568;48.176;16.316;2023-05-10T03:55:07;4.27;;;2.33;;
20814;SDS011;10568;48.176;16.316;2023-05-10T03:57:33;3.30;;;2.30;;
20814;SDS011;10568;48.176;16.316;2023-05-10T03:59:59;3.83;;;2.20;;
20814;SDS011;10568;48.176;16.316;2023-05-10T04:02:25;2.80;;;2.10;;
20814;SDS011;10568;48.176;16.316;2023-05-10T04:04:51;3.63;;;2.60;;
20814;SDS011;10568;48.176;16.316;2023-05-10T04:07:16;4.13;;;2.40;;
20814;SDS011;10568;48.176;16.316;2023-05-10T04:09:43;3.43;;;2.27;;
20814;SDS011;10568;48.176;16.316;2023-05-10T04:12:08;4.00;;;2.30;;
20814;SDS011;10568;48.176;16.316;2023-05-10T04:14:34;2.93;;;1.97;;
20814;SDS011;10568;48.176;16.316;2023-05-10T04:17:00;4.77;;;2.50;;
20814;SDS011;10568;48.176;16.316;2023-05-10T04:19:32;2.63;;;1.90;;
20814;SDS011;10568;48.176;16.316;2023-05-10T04:21:58;3.93;;;2.60;;
20814;SDS011;10568;48.176;16.316;2023-05-10T04:24:24;3.57;;;2.57;;
20814;SDS011;10568;48.176;16.316;2023-05-10T04:26:50;4.03;;;2.30;;
20814;SDS011;10568;48.176;16.316;2023-05-10T04:29:16;3.27;;;2.30;;
20814;SDS011;10568;48.176;16.316;2023-05-10T04:31:42;3.67;;;2.53;;
20814;SDS011;10568;48.176;16.316;2023-05-10T04:34:08;5.57;;;2.37;;
20814;SDS011;10568;48.176;16.316;2023-05-10T04:36:33;3.53;;;2.73;;
20814;SDS011;10568;48.176;16.316;2023-05-10T04:39:01;2.80;;;1.90;;
20814;SDS011;10568;48.176;16.316;2023-05-10T04:41:30;4.43;;;2.43;;
20814;SDS011;10568;48.176;16.316;2023-05-10T04:43:56;3.90;;;2.70;;
20814;SDS011;10568;48.176;16.316;2023-05-10T04:46:22;3.67;;;2.13;;
20814;SDS011;10568;48.176;16.316;2023-05-10T04:48:48;4.87;;;2.50;;
20814;SDS011;10568;48.176;16.316;2023-05-10T04:51:14;3.03;;;2.20;;
20814;SDS011;10568;48.176;16.316;2023-05-10T04:53:39;3.77;;;2.20;;
20814;SDS011;10568;48.176;16.316;2023-05-10T04:56:05;3.90;;;2.20;;
20814;SDS011;10568;48.176;16.316;2023-05-10T04:58:32;3.63;;;2.30;;
20814;SDS011;10568;48.176;16.316;2023-05-10T05:01:04;3.80;;;2.50;;
20814;SDS011;10568;48.176;16.316;2023-05-10T05:03:33;3.97;;;2.40;;
20814;SDS011;10568;48.176;16.316;2023-05-10T05:05:59;4.33;;;2.53;;
20814;SDS011;10568;48.176;16.316;2023-05-10T05:08:25;3.80;;;2.40;;
20814;SDS011;10568;48.176;16.316;2023-05-10T05:10:50;3.23;;;2.50;;
20814;SDS011;10568;48.176;16.316;2023-05-10T05:13:16;3.47;;;2.60;;
20814;SDS011;10568;48.176;16.316;2023-05-10T05:15:42;3.77;;;2.60;;
20814;SDS011;10568;48.176;16.316;2023-05-10T05:18:08;3.57;;;2.23;;
20814;SDS011;10568;48.176;16.316;2023-05-10T05:20:34;3.90;;;2.60;;
20814;SDS011;10568;48.176;16.316;2023-05-10T05:23:00;2.90;;;2.30;;
20814;SDS011;10568;48.176;16.316;2023-05-10T05:25:26;4.90;;;2.50;;
20814;SDS011;10568;48.176;16.316;2023-05-10T05:27:53;5.27;;;2.53;;
20814;SDS011;10568;48.176;16.316;2023-05-10T05:30:19;3.93;;;2.50;;
20814;SDS011;10568;48.176;16.316;2023-05-10T05:32:45;4.53;;;2.33;;
20814;SDS011;10568;48.176;16.316;2023-05-10T05:35:12;4.17;;;2.60;;
20814;SDS011;10568;48.176;16.316;2023-05-10T05:37:39;3.80;;;2.60;;
20814;SDS011;10568;48.176;16.316;2023-05-10T05:40:13;4.10;;;2.40;;
20814;SDS011;10568;48.176;16.316;2023-05-10T05:42:51;3.47;;;2.40;;
20814;SDS011;10568;48.176;16.316;2023-05-10T05:45:24;3.57;;;2.77;;
20814;SDS011;10568;48.176;16.316;2023-05-10T05:47:57;3.93;;;2.67;;
20814;SDS011;10568;48.176;16.316;2023-05-10T05:50:27;5.13;;;2.67;;
20814;SDS011;10568;48.176;16.316;2023-05-10T05:52:59;3.57;;;2.60;;
20814;SDS011;10568;48.176;16.316;2023-05-10T05:55:28;3.20;;;2.40;;
20814;SDS011;10568;48.176;16.316;2023-05-10T05:57:59;3.93;;;2.63;;
20814;SDS011;10568;48.176;16.316;2023-05-10T06:00:25;4.57;;;2.03;;
20814;SDS011;10568;48.176;16.316;2023-05-10T06:02:51;3.47;;;2.33;;
20814;SDS011;10568;48.176;16.316;2023-05-10T06:05:17;2.70;;;2.10;;
20814;SDS011;10568;48.176;16.316;2023-05-10T06:07:43;6.63;;;2.50;;
20814;SDS011;10568;48.176;16.316;2023-05-10T06:10:09;3.27;;;2.30;;
20814;SDS011;10568;48.176;16.316;2023-05-10T06:12:35;3.63;;;2.60;;
20814;SDS011;10568;48.176;16.316;2023-05-10T06:15:01;3.57;;;2.33;;
20814;SDS011;10568;48.176;16.316;2023-05-10T06:17:27;2.70;;;2.00;;
20814;SDS011;10568;48.176;16.316;2023-05-10T06:19:53;2.63;;;2.07;;
20814;SDS011;10568;48.176;16.316;2023-05-10T06:22:19;2.40;;;1.77;;
20814;SDS011;10568;48.176;16.316;2023-05-10T06:24:47;2.37;;;2.13;;
20814;SDS011;10568;48.176;16.316;2023-05-10T06:27:13;2.67;;;2.17;;
20814;SDS011;10568;48.176;16.316;2023-05-10T06:29:39;4.10;;;1.90;;
20814;SDS011;10568;48.176;16.316;2023-05-10T06:32:05;2.80;;;2.20;;
20814;SDS011;10568;48.176;16.316;2023-05-10T06:34:31;3.47;;;2.40;;
20814;SDS011;10568;48.176;16.316;2023-05-10T06:36:57;5.03;;;2.23;;
20814;SDS011;10568;48.176;16.316;2023-05-10T06:39:23;4.13;;;2.57;;
20814;SDS011;10568;48.176;16.316;2023-05-10T06:41:48;6.57;;;2.47;;
20814;SDS011;10568;48.176;16.316;2023-05-10T06:44:14;3.30;;;2.13;;
20814;SDS011;10568;48.176;16.316;2023-05-10T06:46:40;3.13;;;1.87;;
20814;SDS011;10568;48.176;16.316;2023-05-10T06:49:06;2.70;;;2.20;;
20814;SDS011;10568;48.176;16.316;2023-05-10T06:51:32;4.07;;;2.47;;
20814;SDS011;10568;48.176;16.316;2023-05-10T06:53:58;3.43;;;2.37;;
20814;SDS011;10568;48.176;16.316;2023-05-10T06:56:24;3.07;;;2.23;;
20814;SDS011;10568;48.176;16.316;2023-05-10T06:58:50;4.10;;;2.27;;
20814;SDS011;10568;48.176;16.316;2023-05-10T07:01:15;4.10;;;2.30;;
20814;SDS011;10568;48.176;16.316;2023-05-10T07:03:41;3.33;;;2.40;;
20814;SDS011;10568;48.176;16.316;2023-05-10T07:06:07;3.30;;;2.50;;
20814;SDS011;10568;48.176;16.316;2023-05-10T07:08:33;3.10;;;2.20;;
20814;SDS011;10568;48.176;16.316;2023-05-10T07:11:00;4.17;;;2.90;;
20814;SDS011;10568;48.176;16.316;2023-05-10T07:13:30;3.10;;;2.10;;
20814;SDS011;10568;48.176;16.316;2023-05-10T07:15:56;3.77;;;2.37;;
20814;SDS011;10568;48.176;16.316;2023-05-10T07:18:23;3.20;;;2.17;;
20814;SDS011;10568;48.176;16.316;2023-05-10T07:20:49;2.27;;;1.83;;
20814;SDS011;10568;48.176;16.316;2023-05-10T07:23:15;3.80;;;1.87;;
20814;SDS011;10568;48.176;16.316;2023-05-10T07:25:44;2.30;;;1.77;;
20814;SDS011;10568;48.176;16.316;2023-05-10T07:28:14;3.60;;;2.10;;
20814;SDS011;10568;48.176;16.316;2023-05-10T07:30:41;3.60;;;2.50;;
20814;SDS011;10568;48.176;16.316;2023-05-10T07:33:07;2.60;;;1.90;;
20814;SDS011;10568;48.176;16.316;2023-05-10T07:35:34;2.10;;;1.85;;
20814;SDS011;10568;48.176;16.316;2023-05-10T07:38:01;3.05;;;2.30;;
20814;SDS011;10568;48.176;16.316;2023-05-10T07:40:27;2.33;;;1.90;;
20814;SDS011;10568;48.176;16.316;2023-05-10T07:42:54;2.67;;;2.22;;
20814;SDS011;10568;48.176;16.316;2023-05-10T07:45:20;3.47;;;2.13;;
20814;SDS011;10568;48.176;16.316;2023-05-10T07:47:45;3.05;;;2.38;;
20814;SDS011;10568;48.176;16.316;2023-05-10T07:50:12;3.40;;;2.43;;
20814;SDS011;10568;48.176;16.316;2023-05-10T07:52:37;3.25;;;2.25;;
20814;SDS011;10568;48.176;16.316;2023-05-10T07:55:03;6.25;;;2.28;;
20814;SDS011;10568;48.176;16.316;2023-05-10T07:57:29;2.78;;;2.10;;
20814;SDS011;10568;48.176;16.316;2023-05-10T07:59:56;2.92;;;2.30;;
20814;SDS011;10568;48.176;16.316;2023-05-10T08:02:21;2.70;;;1.70;;
20814;SDS011;10568;48.176;16.316;2023-05-10T08:04:47;2.45;;;1.90;;
20814;SDS011;10568;48.176;16.316;2023-05-10T08:07:13;3.35;;;2.30;;
20814;SDS011;10568;48.176;16.316;2023-05-10T08:09:39;3.17;;;2.10;;
20814;SDS011;10568;48.176;16.316;2023-05-10T08:12:05;3.58;;;2.00;;
20814;SDS011;10568;48.176;16.316;2023-05-10T08:14:31;5.05;;;2.17;;
20814;SDS011;10568;48.176;16.316;2023-05-10T08:16:57;3.50;;;2.60;;
20814;SDS011;10568;48.176;16.316;2023-05-10T08:19:22;3.40;;;2.65;;
20814;SDS011;10568;48.176;16.316;2023-05-10T08:21:50;3.00;;;2.22;;
20814;SDS011;10568;48.176;16.316;2023-05-10T08:24:16;4.45;;;2.45;;
20814;SDS011;10568;48.176;16.316;2023-05-10T08:26:41;2.97;;;2.22;;
20814;SDS011;10568;48.176;16.316;2023-05-10T08:29:07;3.38;;;2.60;;
20814;SDS011;10568;48.176;16.316;2023-05-10T08:31:33;2.88;;;2.00;;
20814;SDS011;10568;48.176;16.316;2023-05-10T08:33:59;2.72;;;2.15;;
20814;SDS011;10568;48.176;16.316;2023-05-10T08:36:25;3.70;;;2.10;;
20814;SDS011;10568;48.176;16.316;2023-05-10T08:38:51;2.53;;;1.98;;
20814;SDS011;10568;48.176;16.316;2023-05-10T08:41:19;3.10;;;2.00;;
20814;SDS011;10568;48.176;16.316;2023-05-10T08:43:46;2.80;;;2.10;;
20814;SDS011;10568;48.176;16.316;2023-05-10T08:46:16;4.18;;;2.70;;
20814;SDS011;10568;48.176;16.316;2023-05-10T08:48:44;2.75;;;2.03;;
20814;SDS011;10568;48.176;16.316;2023-05-10T08:51:14;3.50;;;2.17;;
20814;SDS011;10568;48.176;16.316;2023-05-10T08:53:43;3.13;;;2.25;;
20814;SDS011;10568;48.176;16.316;2023-05-10T08:56:10;3.20;;;2.20;;
20814;SDS011;10568;48.176;16.316;2023-05-10T08:58:36;4.05;;;2.38;;
20814;SDS011;10568;48.176;16.316;2023-05-10T09:01:03;2.97;;;2.10;;
20814;SDS011;10568;48.176;16.316;2023-05-10T09:03:29;2.53;;;2.00;;
20814;SDS011;10568;48.176;16.316;2023-05-10T09:05:55;3.35;;;1.90;;
20814;SDS011;10568;48.176;16.316;2023-05-10T09:08:25;2.17;;;1.70;;
20814;SDS011;10568;48.176;16.316;2023-05-10T09:10:52;2.38;;;1.85;;
20814;SDS011;10568;48.176;16.316;2023-05-10T09:13:18;2.20;;;1.65;;
20814;SDS011;10568;48.176;16.316;2023-05-10T09:15:46;1.73;;;1.63;;
20814;SDS011;10568;48.176;16.316;2023-05-10T09:18:13;3.88;;;1.67;;
20814;SDS011;10568;48.176;16.316;2023-05-10T09:20:41;2.15;;;1.38;;
20814;SDS011;10568;48.176;16.316;2023-05-10T09:23:07;1.80;;;1.45;;
20814;SDS011;10568;48.176;16.316;2023-05-10T09:25:33;2.05;;;1.50;;
20814;SDS011;10568;48.176;16.316;2023-05-10T09:28:00;1.52;;;1.20;;
20814;SDS011;10568;48.176;16.316;2023-05-10T09:30:27;2.15;;;1.45;;
20814;SDS011;10568;48.176;16.316;2023-05-10T09:32:55;1.83;;;1.40;;
20814;SDS011;10568;48.176;16.316;2023-05-10T09:35:22;2.60;;;1.20;;
20814;SDS011;10568;48.176;16.316;2023-05-10T09:37:50;1.58;;;1.05;;
20814;SDS011;10568;48.176;16.316;2023-05-10T09:40:22;1.70;;;1.20;;
20814;SDS011;10568;48.176;16.316;2023-05-10T09:43:01;1.20;;;1.00;;
20814;SDS011;10568;48.176;16.316;2023-05-10T09:45:34;1.42;;;1.05;;
20814;SDS011;10568;48.176;16.316;2023-05-10T09:48:01;1.55;;;1.30;;
20814;SDS011;10568;48.176;16.316;2023-05-10T09:50:28;1.40;;;0.82;;
20814;SDS011;10568;48.176;16.316;2023-05-10T09:52:55;1.02;;;0.93;;
20814;SDS011;10568;48.176;16.316;2023-05-10T09:55:37;2.50;;;0.90;;
20814;SDS011;10568;48.176;16.316;2023-05-10T09:58:05;3.50;;;1.10;;
20814;SDS011;10568;48.176;16.316;2023-05-10T10:00:35;1.15;;;0.90;;
20814;SDS011;10568;48.176;16.316;2023-05-10T10:03:03;0.90;;;0.90;;
20814;SDS011;10568;48.176;16.316;2023-05-10T10:05:32;0.93;;;0.80;;
20814;SDS011;10568;48.176;16.316;2023-05-10T10:08:04;2.45;;;1.10;;
20814;SDS011;10568;48.176;16.316;2023-05-10T10:10:30;1.10;;;1.00;;
20814;SDS011;10568;48.176;16.316;2023-05-10T10:12:57;2.00;;;1.00;;
20814;SDS011;10568;48.176;16.316;2023-05-10T10:15:24;1.13;;;0.88;;
20814;SDS011;10568;48.176;16.316;2023-05-10T10:17:51;0.93;;;0.77;;
20814;SDS011;10568;48.176;16.316;2023-05-10T10:20:18;1.00;;;0.80;;
20814;SDS011;10568;48.176;16.316;2023-05-10T10:22:46;0.60;;;0.60;;
20814;SDS011;10568;48.176;16.316;2023-05-10T10:25:13;1.35;;;0.80;;
20814;SDS011;10568;48.176;16.316;2023-05-10T10:35:45;0.82;;;0.77;;
20814;SDS011;10568;48.176;16.316;2023-05-10T10:38:12;1.23;;;0.80;;
20814;SDS011;10568;48.176;16.316;2023-05-10T10:40:38;1.20;;;0.75;;
20814;SDS011;10568;48.176;16.316;2023-05-10T10:43:23;0.85;;;0.80;;
20814;SDS011;10568;48.176;16.316;2023-05-10T10:46:11;0.63;;;0.63;;
20814;SDS011;10568;48.176;16.316;2023-05-10T10:48:47;1.20;;;0.80;;
20814;SDS011;10568;48.176;16.316;2023-05-10T10:51:14;1.30;;;0.80;;
20814;SDS011;10568;48.176;16.316;2023-05-10T10:53:40;1.75;;;0.77;;
20814;SDS011;10568;48.176;16.316;2023-05-10T10:58:34;1.10;;;0.70;;
20814;SDS011;10568;48.176;16.316;2023-05-10T11:03:40;0.70;;;0.63;;
20814;SDS011;10568;48.176;16.316;2023-05-10T11:06:33;1.48;;;0.93;;
20814;SDS011;10568;48.176;16.316;2023-05-10T11:09:07;1.40;;;1.05;;
20814;SDS011;10568;48.176;16.316;2023-05-10T11:11:34;1.13;;;1.02;;
20814;SDS011;10568;48.176;16.316;2023-05-10T11:14:03;1.15;;;1.00;;
20814;SDS011;10568;48.176;16.316;2023-05-10T11:16:40;2.22;;;0.90;;
20814;SDS011;10568;48.176;16.316;2023-05-10T11:19:13;1.00;;;0.80;;
20814;SDS011;10568;48.176;16.316;2023-05-10T11:21:50;0.82;;;0.80;;
20814;SDS011;10568;48.176;16.316;2023-05-10T11:24:28;0.82;;;0.82;;
20814;SDS011;10568;48.176;16.316;2023-05-10T11:26:54;1.02;;;0.90;;
20814;SDS011;10568;48.176;16.316;2023-05-10T11:29:21;1.10;;;0.93;;
20814;SDS011;10568;48.176;16.316;2023-05-10T11:31:47;0.98;;;0.68;;
20814;SDS011;10568;48.176;16.316;2023-05-10T11:34:27;1.02;;;0.80;;
20814;SDS011;10568;48.176;16.316;2023-05-10T11:36:55;0.75;;;0.75;;
20814;SDS011;10568;48.176;16.316;2023-05-10T11:39:25;1.20;;;0.73;;
20814;SDS011;10568;48.176;16.316;2023-05-10T11:41:52;0.95;;;0.88;;
20814;SDS011;10568;48.176;16.316;2023-05-10T11:44:18;1.50;;;1.00;;
20814;SDS011;10568;48.176;16.316;2023-05-10T11:46:44;1.25;;;0.90;;
20814;SDS011;10568;48.176;16.316;2023-05-10T11:49:09;1.55;;;0.68;;
20814;SDS011;10568;48.176;16.316;2023-05-10T11:51:36;0.88;;;0.80;;
20814;SDS011;10568;48.176;16.316;2023-05-10T11:54:05;0.98;;;0.80;;
20814;SDS011;10568;48.176;16.316;2023-05-10T11:56:35;1.23;;;0.88;;
20814;SDS011;10568;48.176;16.316;2023-05-10T11:59:04;1.40;;;0.80;;
20814;SDS011;10568;48.176;16.316;2023-05-10T12:01:30;0.80;;;0.70;;
20814;SDS011;10568;48.176;16.316;2023-05-10T12:03:57;1.13;;;0.88;;
20814;SDS011;10568;48.176;16.316;2023-05-10T12:06:28;1.30;;;1.00;;
20814;SDS011;10568;48.176;16.316;2023-05-10T12:09:05;0.70;;;0.70;;
20814;SDS011;10568;48.176;16.316;2023-05-10T12:11:33;2.35;;;1.10;;
20814;SDS011;10568;48.176;16.316;2023-05-10T12:14:03;1.33;;;0.98;;
20814;SDS011;10568;48.176;16.316;2023-05-10T12:16:30;0.98;;;0.60;;
20814;SDS011;10568;48.176;16.316;2023-05-10T12:18:56;1.05;;;0.90;;
20814;SDS011;10568;48.176;16.316;2023-05-10T12:21:23;1.73;;;0.73;;
20814;SDS011;10568;48.176;16.316;2023-05-10T12:23:50;1.10;;;1.00;;
20814;SDS011;10568;48.176;16.316;2023-05-10T12:26:21;1.33;;;0.80;;
20814;SDS011;10568;48.176;16.316;2023-05-10T12:28:47;1.27;;;0.90;;
20814;SDS011;10568;48.176;16.316;2023-05-10T12:31:13;0.95;;;0.80;;
20814;SDS011;10568;48.176;16.316;2023-05-10T12:33:40;1.33;;;0.88;;
20814;SDS011;10568;48.176;16.316;2023-05-10T12:36:16;1.33;;;0.80;;
20814;SDS011;10568;48.176;16.316;2023-05-10T12:38:48;2.10;;;0.80;;
20814;SDS011;10568;48.176;16.316;2023-05-10T12:41:16;0.70;;;0.70;;
20814;SDS011;10568;48.176;16.316;2023-05-10T12:43:43;0.85;;;0.85;;
20814;SDS011;10568;48.176;16.316;2023-05-10T12:46:11;0.80;;;0.63;;
20814;SDS011;10568;48.176;16.316;2023-05-10T12:48:38;0.82;;;0.77;;
20814;SDS011;10568;48.176;16.316;2023-05-10T12:51:05;1.35;;;0.93;;
20814;SDS011;10568;48.176;16.316;2023-05-10T12:53:37;1.23;;;0.80;;
20814;SDS011;10568;48.176;16.316;2023-05-10T12:56:03;0.70;;;0.70;;
20814;SDS011;10568;48.176;16.316;2023-05-10T12:58:30;0.88;;;0.80;;
20814;SDS011;10568;48.176;16.316;2023-05-10T13:00:57;1.38;;;0.90;;
20814;SDS011;10568;48.176;16.316;2023-05-10T13:03:23;1.13;;;1.00;;
20814;SDS011;10568;48.176;16.316;2023-05-10T13:05:49;1.42;;;0.90;;
20814;SDS011;10568;48.176;16.316;2023-05-10T13:08:15;1.73;;;0.95;;
20814;SDS011;10568;48.176;16.316;2023-05-10T13:10:41;1.58;;;1.10;;
20814;SDS011;10568;48.176;16.316;2023-05-10T13:13:06;1.05;;;0.98;;
20814;SDS011;10568;48.176;16.316;2023-05-10T13:15:33;1.08;;;0.88;;
20814;SDS011;10568;48.176;16.316;2023-05-10T13:17:59;1.10;;;1.00;;
20814;SDS011;10568;48.176;16.316;2023-05-10T13:20:25;1.70;;;1.05;;
20814;SDS011;10568;48.176;16.316;2023-05-10T13:22:52;2.15;;;1.13;;
20814;SDS011;10568;48.176;16.316;2023-05-10T13:25:18;1.23;;;1.05;;
20814;SDS011;10568;48.176;16.316;2023-05-10T13:27:44;1.60;;;1.35;;
20814;SDS011;10568;48.176;16.316;2023-05-10T13:30:09;0.80;;;0.80;;
20814;SDS011;10568;48.176;16.316;2023-05-10T13:32:36;2.45;;;1.15;;
20814;SDS011;10568;48.176;16.316;2023-05-10T13:35:03;1.55;;;1.15;;
20814;SDS011;10568;48.176;16.316;2023-05-10T13:37:29;1.27;;;0.88;;
20814;SDS011;10568;48.176;16.316;2023-05-10T13:39:56;1.48;;;1.20;;
20814;SDS011;10568;48.176;16.316;2023-05-10T13:42:22;2.17;;;0.98;;
20814;SDS011;10568;48.176;16.316;2023-05-10T13:44:48;1.25;;;1.10;;
20814;SDS011;10568;48.176;16.316;2023-05-10T13:47:15;1.33;;;1.10;;
20814;SDS011;10568;48.176;16.316;2023-05-10T13:49:40;1.58;;;1.02;;
20814;SDS011;10568;48.176;16.316;2023-05-10T13:52:06;1.20;;;1.10;;
20814;SDS011;10568;48.176;16.316;2023-05-10T13:54:33;1.67;;;1.20;;
20814;SDS011;10568;48.176;16.316;2023-05-10T13:56:59;1.67;;;1.10;;
20814;SDS011;10568;48.176;16.316;2023-05-10T13:59:25;2.70;;;1.30;;
20814;SDS011;10568;48.176;16.316;2023-05-10T14:01:51;1.30;;;1.20;;
20814;SDS011;10568;48.176;16.316;2023-05-10T14:04:17;1.00;;;0.90;;
20814;SDS011;10568;48.176;16.316;2023-05-10T14:06:43;2.65;;;1.00;;
20814;SDS011;10568;48.176;16.316;2023-05-10T14:09:08;1.10;;;1.00;;
20814;SDS011;10568;48.176;16.316;2023-05-10T14:11:34;1.38;;;1.10;;
20814;SDS011;10568;48.176;16.316;2023-05-10T14:14:00;1.55;;;1.05;;
20814;SDS011;10568;48.176;16.316;2023-05-10T14:16:26;1.88;;;1.00;;
20814;SDS011;10568;48.176;16.316;2023-05-10T14:18:52;1.83;;;1.10;;
20814;SDS011;10568;48.176;16.316;2023-05-10T14:21:18;1.38;;;1.05;;
20814;SDS011;10568;48.176;16.316;2023-05-10T14:23:43;1.05;;;0.93;;
20814;SDS011;10568;48.176;16.316;2023-05-10T14:26:09;1.80;;;1.13;;
20814;SDS011;10568;48.176;16.316;2023-05-10T14:28:35;1.08;;;0.98;;
20814;SDS011;10568;48.176;16.316;2023-05-10T14:31:01;1.63;;;1.52;;
20814;SDS011;10568;48.176;16.316;2023-05-10T14:33:27;2.67;;;1.20;;
20814;SDS011;10568;48.176;16.316;2023-05-10T14:35:53;1.17;;;1.10;;
20814;SDS011;10568;48.176;16.316;2023-05-10T14:38:21;1.77;;;1.05;;
20814;SDS011;10568;48.176;16.316;2023-05-10T14:40:47;2.17;;;1.40;;
20814;SDS011;10568;48.176;16.316;2023-05-10T14:43:13;1.10;;;1.00;;
20814;SDS011;10568;48.176;16.316;2023-05-10T14:45:38;1.92;;;1.10;;
20814;SDS011;10568;48.176;16.316;2023-05-10T14:48:04;1.48;;;1.15;;
20814;SDS011;10568;48.176;16.316;2023-05-10T14:50:30;1.13;;;1.02;;
20814;SDS011;10568;48.176;16.316;2023-05-10T14:52:57;5.28;;;1.75;;
20814;SDS011;10568;48.176;16.316;2023-05-10T14:55:24;2.58;;;1.25;;
20814;SDS011;10568;48.176;16.316;2023-05-10T14:57:49;1.50;;;1.17;;
20814;SDS011;10568;48.176;16.316;2023-05-10T15:00:15;1.23;;;1.10;;
20814;SDS011;10568;48.176;16.316;2023-05-10T15:02:43;1.70;;;1.40;;
20814;SDS011;10568;48.176;16.316;2023-05-10T15:05:09;1.25;;;1.15;;
20814;SDS011;10568;48.176;16.316;2023-05-10T15:07:35;1.48;;;1.20;;